Time;durP1;ratioP1;P1;durP2;ratioP2;P2;SDS_P1;SDS_P2;PMS_P1;PMS_P2;Temp;Humidity;BMP_temperature;BMP_pressure;BME280_temperature;BME280_humidity;BME280_pressure;Samples;Min_cycle;Max_cycle;Signal;HPM_P1;HPM_P2
2022/01/12 00:00:05;;;;;;;12.25;6.03;;;;;;;;;;5015192;28;20057;-77
2022/01/12 00:02:30;;;;;;;11.02;6.22;;;;;;;;;;5027940;28;20349;-77
2022/01/12 00:04:57;;;;;;;10.48;5.43;;;;;;;;;;5030787;28;20654;-77
2022/01/12 00:07:22;;;;;;;14.02;6.22;;;;;;;;;;5015706;28;20025;-77
2022/01/12 00:09:48;;;;;;;10.85;5.70;;;;;;;;;;5013663;28;20026;-77
2022/01/12 00:12:13;;;;;;;13.15;6.38;;;;;;;;;;5023173;28;20033;-77
2022/01/12 00:14:38;;;;;;;9.35;4.80;;;;;;;;;;5013992;28;20068;-78
2022/01/12 00:17:04;;;;;;;7.85;4.30;;;;;;;;;;5015714;28;20021;-77
2022/01/12 00:19:29;;;;;;;9.57;4.60;;;;;;;;;;5029250;28;20037;-78
2022/01/12 00:21:56;;;;;;;7.25;4.57;;;;;;;;;;5031376;28;20017;-77
2022/01/12 00:24:24;;;;;;;8.02;4.57;;;;;;;;;;5030438;28;20041;-77
2022/01/12 00:35:01;;;;;;;5.05;3.13;;;;;;;;;;5016843;28;20040;-78
2022/01/12 00:37:27;;;;;;;7.28;4.05;;;;;;;;;;5011546;28;20022;-77
2022/01/12 00:39:58;;;;;;;9.70;5.40;;;;;;;;;;5013750;28;20036;-77
2022/01/12 00:42:26;;;;;;;8.02;4.82;;;;;;;;;;5009908;28;20407;-78
2022/01/12 00:44:52;;;;;;;8.68;4.63;;;;;;;;;;5011588;28;20036;-77
2022/01/12 00:47:18;;;;;;;12.43;5.03;;;;;;;;;;5011192;28;20156;-77
2022/01/12 00:49:43;;;;;;;7.72;3.88;;;;;;;;;;5018655;28;20116;-77
2022/01/12 00:52:09;;;;;;;9.77;4.90;;;;;;;;;;5030813;28;20029;-77
2022/01/12 00:54:34;;;;;;;10.65;5.63;;;;;;;;;;5019857;28;20060;-77
2022/01/12 00:56:59;;;;;;;11.57;5.63;;;;;;;;;;5015038;28;20044;-77
2022/01/12 00:59:25;;;;;;;9.43;4.75;;;;;;;;;;5019240;28;20112;-77
2022/01/12 01:01:50;;;;;;;11.38;5.07;;;;;;;;;;5013591;28;20035;-77
2022/01/12 01:04:16;;;;;;;8.18;4.28;;;;;;;;;;5009590;28;20021;-77
2022/01/12 01:06:42;;;;;;;9.25;4.45;;;;;;;;;;5010754;28;20061;-77
2022/01/12 01:09:07;;;;;;;8.18;4.28;;;;;;;;;;5011061;28;20096;-77
2022/01/12 01:11:33;;;;;;;10.52;5.50;;;;;;;;;;5011179;28;20064;-77
2022/01/12 01:14:12;;;;;;;9.55;4.60;;;;;;;;;;5010801;28;20506;-77
2022/01/12 01:27:17;;;;;;;7.25;4.18;;;;;;;;;;5014198;28;20040;-77
2022/01/12 01:29:43;;;;;;;9.27;4.70;;;;;;;;;;5017360;28;20021;-78
2022/01/12 01:32:08;;;;;;;7.75;4.40;;;;;;;;;;5010310;28;20095;-77
2022/01/12 01:34:36;;;;;;;11.32;4.90;;;;;;;;;;5016373;28;20103;-77
2022/01/12 01:37:01;;;;;;;6.70;3.85;;;;;;;;;;5015640;28;20041;-77
2022/01/12 01:39:27;;;;;;;7.68;4.25;;;;;;;;;;5019775;28;20029;-77
2022/01/12 01:41:58;;;;;;;8.57;4.90;;;;;;;;;;5029994;28;20104;-77
2022/01/12 01:55:08;;;;;;;14.57;5.57;;;;;;;;;;5017503;28;20032;-77
2022/01/12 01:57:35;;;;;;;15.70;7.03;;;;;;;;;;5021904;28;20468;-77
2022/01/12 02:00:05;;;;;;;14.52;6.03;;;;;;;;;;5014238;28;20048;-77
2022/01/12 02:02:30;;;;;;;12.60;6.00;;;;;;;;;;5024854;28;20037;-77
2022/01/12 02:04:55;;;;;;;14.35;5.57;;;;;;;;;;5028370;28;20430;-77
2022/01/12 02:07:20;;;;;;;9.75;4.97;;;;;;;;;;5026946;28;20028;-77
2022/01/12 02:09:46;;;;;;;11.82;5.50;;;;;;;;;;5019750;28;20034;-78
2022/01/12 02:12:12;;;;;;;15.45;5.97;;;;;;;;;;5043612;22;20456;-74
2022/01/12 02:14:38;;;;;;;13.13;5.22;;;;;;;;;;5027181;28;20025;-74
2022/01/12 02:17:10;;;;;;;13.52;5.88;;;;;;;;;;5029022;28;20457;-73
2022/01/12 02:19:52;;;;;;;14.80;6.50;;;;;;;;;;5028127;28;20106;-74
2022/01/12 02:36:12;;;;;;;10.10;5.13;;;;;;;;;;4998772;28;20068;-76
2022/01/12 02:41:22;;;;;;;10.52;5.55;;;;;;;;;;5014693;28;20095;-77
2022/01/12 02:54:40;;;;;;;10.70;5.18;;;;;;;;;;5013971;28;20053;-76
2022/01/12 02:57:05;;;;;;;11.48;5.55;;;;;;;;;;5015243;28;20631;-76
2022/01/12 02:59:31;;;;;;;11.07;5.43;;;;;;;;;;5015185;28;20037;-77
2022/01/12 03:04:28;;;;;;;15.80;6.00;;;;;;;;;;5014070;28;20045;-76
2022/01/12 03:07:03;;;;;;;14.32;5.75;;;;;;;;;;5014360;28;20333;-76
2022/01/12 03:09:28;;;;;;;13.07;5.05;;;;;;;;;;5012428;28;20029;-76
2022/01/12 03:11:54;;;;;;;10.10;4.75;;;;;;;;;;5012732;28;20582;-76
2022/01/12 03:14:19;;;;;;;9.70;5.20;;;;;;;;;;5012402;28;20234;-77
2022/01/12 03:16:44;;;;;;;12.32;5.85;;;;;;;;;;5011357;28;20022;-77
2022/01/12 03:19:09;;;;;;;11.40;5.47;;;;;;;;;;5011847;28;20372;-76
2022/01/12 03:21:35;;;;;;;14.98;6.15;;;;;;;;;;5013823;28;20122;-76
2022/01/12 03:24:02;;;;;;;11.32;6.00;;;;;;;;;;5014388;28;20023;-76
2022/01/12 03:26:29;;;;;;;11.93;5.38;;;;;;;;;;5016556;28;20025;-77
2022/01/12 03:28:55;;;;;;;11.43;5.68;;;;;;;;;;5014002;28;20041;-77
2022/01/12 03:31:24;;;;;;;10.38;5.47;;;;;;;;;;4995825;28;20023;-76
2022/01/12 03:33:57;;;;;;;10.23;5.97;;;;;;;;;;5007606;28;20030;-76
2022/01/12 03:36:27;;;;;;;12.52;5.82;;;;;;;;;;5009135;28;20039;-77
2022/01/12 03:38:54;;;;;;;12.48;5.68;;;;;;;;;;5013219;28;20557;-77
2022/01/12 03:41:20;;;;;;;12.15;6.15;;;;;;;;;;5016315;28;20038;-76
2022/01/12 03:43:46;;;;;;;10.60;5.32;;;;;;;;;;5013817;28;20029;-76
2022/01/12 03:46:13;;;;;;;9.63;5.40;;;;;;;;;;5014225;28;20551;-76
2022/01/12 03:48:39;;;;;;;13.52;6.20;;;;;;;;;;5014385;28;20048;-77
2022/01/12 03:51:04;;;;;;;12.07;5.93;;;;;;;;;;5015877;28;20113;-77
2022/01/12 03:53:29;;;;;;;12.18;5.60;;;;;;;;;;5015706;28;20044;-77
2022/01/12 03:55:55;;;;;;;11.63;5.97;;;;;;;;;;5014676;28;20438;-74
2022/01/12 03:58:20;;;;;;;10.93;5.68;;;;;;;;;;5012128;28;20412;-74
2022/01/12 04:00:45;;;;;;;8.82;4.85;;;;;;;;;;5012367;28;20522;-76
2022/01/12 04:03:12;;;;;;;10.50;5.63;;;;;;;;;;5008202;28;20026;-77
2022/01/12 04:08:20;;;;;;;8.70;5.10;;;;;;;;;;5015149;28;20036;-77
2022/01/12 04:10:51;;;;;;;10.18;5.38;;;;;;;;;;5014140;28;20029;-77
2022/01/12 04:13:16;;;;;;;10.63;5.63;;;;;;;;;;5016522;28;20040;-77
2022/01/12 04:15:50;;;;;;;9.57;5.03;;;;;;;;;;5014778;28;20486;-77
2022/01/12 04:18:15;;;;;;;10.27;5.30;;;;;;;;;;5008934;28;20033;-77
2022/01/12 04:20:46;;;;;;;11.07;5.60;;;;;;;;;;5001626;28;20072;-77
2022/01/12 04:23:17;;;;;;;11.48;6.20;;;;;;;;;;5015727;28;20045;-77
2022/01/12 04:25:44;;;;;;;13.32;5.68;;;;;;;;;;5016778;28;20025;-77
2022/01/12 04:28:09;;;;;;;11.52;5.97;;;;;;;;;;5013955;28;20044;-77
2022/01/12 04:30:35;;;;;;;12.73;6.20;;;;;;;;;;5013020;28;20105;-77
2022/01/12 04:33:00;;;;;;;11.23;6.00;;;;;;;;;;5014842;28;20464;-77
2022/01/12 04:35:31;;;;;;;12.73;6.60;;;;;;;;;;5011469;28;20030;-76
2022/01/12 04:37:56;;;;;;;12.25;5.78;;;;;;;;;;5011859;28;20056;-76
2022/01/12 04:40:22;;;;;;;12.93;6.05;;;;;;;;;;5013387;28;20510;-77
2022/01/12 04:42:47;;;;;;;10.35;6.25;;;;;;;;;;5012585;28;20029;-77
2022/01/12 04:45:57;;;;;;;10.38;5.55;;;;;;;;;;5014363;28;20022;-77
2022/01/12 04:50:55;;;;;;;11.30;6.30;;;;;;;;;;4973274;28;20038;-76
2022/01/12 04:53:21;;;;;;;12.55;5.85;;;;;;;;;;5012670;28;20037;-77
2022/01/12 04:55:48;;;;;;;10.35;5.55;;;;;;;;;;5011501;28;20029;-77
2022/01/12 04:58:15;;;;;;;9.93;5.32;;;;;;;;;;5013475;28;20041;-76
2022/01/12 05:00:41;;;;;;;12.23;7.47;;;;;;;;;;5011039;28;20036;-77
2022/01/12 05:08:49;;;;;;;13.23;6.35;;;;;;;;;;5011799;28;20041;-77
2022/01/12 05:14:00;;;;;;;14.07;7.18;;;;;;;;;;5011623;28;20044;-76
2022/01/12 05:16:25;;;;;;;12.57;6.15;;;;;;;;;;5010012;28;20535;-76
2022/01/12 05:18:52;;;;;;;12.32;5.80;;;;;;;;;;5008617;28;20117;-76
2022/01/12 05:21:19;;;;;;;13.15;6.72;;;;;;;;;;5011079;28;20084;-76
2022/01/12 05:23:44;;;;;;;10.80;5.20;;;;;;;;;;5008952;28;20034;-76
2022/01/12 05:26:10;;;;;;;11.10;5.25;;;;;;;;;;5012345;28;20400;-76
2022/01/12 05:28:38;;;;;;;11.18;5.93;;;;;;;;;;5010607;28;20400;-76
2022/01/12 05:31:04;;;;;;;12.38;5.95;;;;;;;;;;4996049;28;20025;-76
2022/01/12 05:33:30;;;;;;;12.25;6.05;;;;;;;;;;5010381;28;20519;-76
2022/01/12 05:35:57;;;;;;;10.52;6.00;;;;;;;;;;5010984;28;20037;-76
2022/01/12 05:38:23;;;;;;;10.27;5.45;;;;;;;;;;5011442;28;20107;-76
2022/01/12 05:40:52;;;;;;;13.35;6.68;;;;;;;;;;5009311;28;20120;-76
2022/01/12 05:43:23;;;;;;;11.57;6.13;;;;;;;;;;5012215;28;20442;-76
2022/01/12 05:45:50;;;;;;;11.90;5.82;;;;;;;;;;5010559;28;20029;-76
2022/01/12 05:50:41;;;;;;;11.45;5.47;;;;;;;;;;5010316;28;20533;-76
2022/01/12 05:53:06;;;;;;;10.48;6.72;;;;;;;;;;5010642;28;20044;-76
2022/01/12 05:55:32;;;;;;;7.72;4.28;;;;;;;;;;5007971;28;20516;-76
2022/01/12 05:57:57;;;;;;;8.80;5.40;;;;;;;;;;5009518;28;20224;-76
2022/01/12 06:00:25;;;;;;;9.77;5.93;;;;;;;;;;5009154;28;20087;-76
2022/01/12 06:02:51;;;;;;;9.88;5.88;;;;;;;;;;5008732;28;20033;-76
2022/01/12 06:05:18;;;;;;;8.95;5.32;;;;;;;;;;5009564;28;20398;-76
2022/01/12 06:07:45;;;;;;;7.85;5.07;;;;;;;;;;5008098;28;20022;-76
2022/01/12 06:10:11;;;;;;;9.93;5.70;;;;;;;;;;5008014;28;20574;-76
2022/01/12 06:12:37;;;;;;;10.63;5.78;;;;;;;;;;5007907;28;20112;-76
2022/01/12 06:15:03;;;;;;;14.20;6.68;;;;;;;;;;5009034;28;20387;-76
2022/01/12 06:17:29;;;;;;;8.93;6.00;;;;;;;;;;5006678;28;20018;-76
2022/01/12 06:19:54;;;;;;;10.23;6.30;;;;;;;;;;5007208;28;20076;-76
2022/01/12 06:22:19;;;;;;;10.40;6.57;;;;;;;;;;5008752;28;20039;-76
2022/01/12 06:24:45;;;;;;;11.55;6.50;;;;;;;;;;5007843;28;20491;-76
2022/01/12 06:27:14;;;;;;;8.52;5.78;;;;;;;;;;5006328;28;20503;-75
2022/01/12 06:29:50;;;;;;;9.35;5.57;;;;;;;;;;5009148;28;20117;-76
2022/01/12 06:32:16;;;;;;;11.88;6.40;;;;;;;;;;5009626;28;20106;-76
2022/01/12 06:34:42;;;;;;;13.13;6.32;;;;;;;;;;5007773;28;20117;-76
2022/01/12 06:37:08;;;;;;;11.38;6.38;;;;;;;;;;5008559;28;20484;-76
2022/01/12 06:39:33;;;;;;;12.73;7.05;;;;;;;;;;5009239;28;20061;-76
2022/01/12 06:41:58;;;;;;;16.50;9.77;;;;;;;;;;5009813;28;20029;-76
2022/01/12 06:44:25;;;;;;;11.68;7.72;;;;;;;;;;5006653;28;20087;-76
2022/01/12 06:46:52;;;;;;;12.60;6.60;;;;;;;;;;5008386;28;20379;-76
2022/01/12 06:49:18;;;;;;;14.27;6.93;;;;;;;;;;5007981;28;20079;-76
2022/01/12 06:51:44;;;;;;;12.75;6.90;;;;;;;;;;5009507;28;20486;-76
2022/01/12 06:54:10;;;;;;;13.98;6.70;;;;;;;;;;5003770;28;20045;-76
2022/01/12 06:56:36;;;;;;;13.80;6.63;;;;;;;;;;5009151;28;20057;-76
2022/01/12 06:59:02;;;;;;;14.68;7.05;;;;;;;;;;5009212;28;20021;-76
2022/01/12 07:01:28;;;;;;;14.90;6.90;;;;;;;;;;5001387;28;20085;-76
2022/01/12 07:03:53;;;;;;;14.68;6.97;;;;;;;;;;5006808;28;20029;-75
2022/01/12 07:06:19;;;;;;;14.43;6.57;;;;;;;;;;5003253;28;20108;-76
2022/01/12 07:08:44;;;;;;;16.83;7.43;;;;;;;;;;4999676;28;20439;-75
2022/01/12 07:11:10;;;;;;;14.52;6.80;;;;;;;;;;4996102;28;20169;-76
2022/01/12 07:13:35;;;;;;;16.20;7.63;;;;;;;;;;4989625;28;20034;-77
2022/01/12 07:16:00;;;;;;;14.52;7.78;;;;;;;;;;4990680;28;20027;-77
2022/01/12 07:18:28;;;;;;;17.20;7.72;;;;;;;;;;5003791;28;20509;-76
2022/01/12 07:20:54;;;;;;;17.00;7.80;;;;;;;;;;5007441;28;20037;-77
2022/01/12 07:23:19;;;;;;;18.88;8.80;;;;;;;;;;5004685;28;20026;-77
2022/01/12 07:25:44;;;;;;;17.08;7.72;;;;;;;;;;4996527;28;20026;-76
2022/01/12 07:28:09;;;;;;;23.30;9.07;;;;;;;;;;5012429;28;20500;-77
2022/01/12 07:30:35;;;;;;;12.25;6.38;;;;;;;;;;5006788;28;20025;-77
2022/01/12 07:33:01;;;;;;;12.43;6.82;;;;;;;;;;5012820;28;20038;-77
2022/01/12 07:35:26;;;;;;;17.65;7.82;;;;;;;;;;5010569;28;20053;-75
2022/01/12 07:37:52;;;;;;;12.15;7.03;;;;;;;;;;5012301;28;20026;-75
2022/01/12 07:40:17;;;;;;;12.27;6.43;;;;;;;;;;5009246;28;20029;-74
2022/01/12 07:42:43;;;;;;;10.00;5.78;;;;;;;;;;4996028;28;20438;-75
2022/01/12 07:45:09;;;;;;;7.28;4.57;;;;;;;;;;5001878;28;20037;-76
2022/01/12 07:47:34;;;;;;;8.90;4.93;;;;;;;;;;4993882;28;20026;-75
2022/01/12 07:50:00;;;;;;;8.95;5.03;;;;;;;;;;4995120;28;20037;-75
2022/01/12 07:52:27;;;;;;;9.57;5.80;;;;;;;;;;5011386;28;20034;-75
2022/01/12 07:54:52;;;;;;;9.73;5.88;;;;;;;;;;5012070;28;20042;-78
2022/01/12 07:57:18;;;;;;;11.88;6.38;;;;;;;;;;5008858;28;20032;-75
2022/01/12 07:59:44;;;;;;;9.82;5.68;;;;;;;;;;5012035;28;20033;-75
2022/01/12 08:02:10;;;;;;;43.97;21.33;;;;;;;;;;5009913;28;20034;-76
2022/01/12 08:04:36;;;;;;;9.93;5.85;;;;;;;;;;5011277;28;20025;-75
2022/01/12 08:07:03;;;;;;;22.77;11.82;;;;;;;;;;5010573;28;20025;-75
2022/01/12 08:09:28;;;;;;;13.63;6.07;;;;;;;;;;5010442;28;20502;-75
2022/01/12 08:11:54;;;;;;;18.98;9.57;;;;;;;;;;5012191;28;20045;-75
2022/01/12 08:14:19;;;;;;;10.60;6.00;;;;;;;;;;5011464;28;20053;-75
2022/01/12 08:16:45;;;;;;;13.25;6.95;;;;;;;;;;5010543;28;20030;-74
2022/01/12 08:19:11;;;;;;;12.77;6.85;;;;;;;;;;5010911;28;20033;-74
2022/01/12 08:21:36;;;;;;;14.57;7.07;;;;;;;;;;5010603;28;20040;-75
2022/01/12 08:24:02;;;;;;;15.13;8.20;;;;;;;;;;5003647;28;20488;-75
2022/01/12 08:26:27;;;;;;;19.80;10.20;;;;;;;;;;5007648;28;20018;-74
2022/01/12 08:28:52;;;;;;;32.50;18.80;;;;;;;;;;5005301;28;20334;-74
2022/01/12 08:31:20;;;;;;;19.65;10.00;;;;;;;;;;5002886;28;20030;-74
2022/01/12 08:33:47;;;;;;;17.52;8.57;;;;;;;;;;4992119;28;20025;-75
2022/01/12 08:36:13;;;;;;;18.33;8.65;;;;;;;;;;4996279;28;20431;-75
2022/01/12 08:38:38;;;;;;;12.85;7.22;;;;;;;;;;5007904;28;20026;-75
2022/01/12 08:41:04;;;;;;;14.35;7.20;;;;;;;;;;5009584;28;20021;-74
2022/01/12 08:43:29;;;;;;;19.10;9.40;;;;;;;;;;4992856;28;20480;-75
2022/01/12 08:45:54;;;;;;;17.35;8.05;;;;;;;;;;5010873;28;20116;-75
2022/01/12 08:48:20;;;;;;;16.73;8.20;;;;;;;;;;5007171;28;20045;-74
2022/01/12 08:50:46;;;;;;;18.27;9.23;;;;;;;;;;5009672;28;20069;-75
2022/01/12 08:53:11;;;;;;;20.83;10.43;;;;;;;;;;5004291;28;20057;-74
2022/01/12 08:55:37;;;;;;;16.52;8.30;;;;;;;;;;4990997;28;20103;-74
2022/01/12 08:58:03;;;;;;;17.58;7.68;;;;;;;;;;4994747;28;20447;-73
2022/01/12 09:00:28;;;;;;;17.15;8.02;;;;;;;;;;5010608;28;20061;-74
2022/01/12 09:02:54;;;;;;;15.13;6.75;;;;;;;;;;5010540;28;20487;-74
2022/01/12 09:05:19;;;;;;;16.48;7.88;;;;;;;;;;5010241;28;20435;-74
2022/01/12 09:07:44;;;;;;;20.42;8.55;;;;;;;;;;5009251;28;20018;-74
2022/01/12 09:10:11;;;;;;;16.77;8.68;;;;;;;;;;5010268;28;20037;-74
2022/01/12 09:12:36;;;;;;;17.08;7.50;;;;;;;;;;5010020;28;20030;-74
2022/01/12 09:15:04;;;;;;;17.77;8.00;;;;;;;;;;5007760;28;20026;-74
2022/01/12 09:17:30;;;;;;;16.88;7.28;;;;;;;;;;5004910;28;20120;-74
2022/01/12 09:19:55;;;;;;;25.15;10.60;;;;;;;;;;4995778;28;20104;-74
2022/01/12 09:22:21;;;;;;;16.83;8.00;;;;;;;;;;4998210;28;20109;-74
2022/01/12 09:24:46;;;;;;;19.30;8.45;;;;;;;;;;4999620;28;20447;-74
2022/01/12 09:27:12;;;;;;;18.05;8.32;;;;;;;;;;5009737;28;20108;-74
2022/01/12 09:29:38;;;;;;;18.20;8.40;;;;;;;;;;5009688;28;20018;-73
2022/01/12 09:32:03;;;;;;;19.48;8.27;;;;;;;;;;5009820;28;20034;-74
2022/01/12 09:34:29;;;;;;;21.52;8.35;;;;;;;;;;4993613;28;20030;-74
2022/01/12 09:36:54;;;;;;;17.00;7.95;;;;;;;;;;4998000;28;20038;-74
2022/01/12 09:39:19;;;;;;;17.05;7.65;;;;;;;;;;5009994;28;20026;-74
2022/01/12 09:41:45;;;;;;;17.38;7.32;;;;;;;;;;5006301;28;20103;-74
2022/01/12 09:44:11;;;;;;;19.30;9.25;;;;;;;;;;4998515;28;20092;-75
2022/01/12 09:46:37;;;;;;;17.77;8.23;;;;;;;;;;5002346;28;20018;-75
2022/01/12 09:49:06;;;;;;;18.38;7.97;;;;;;;;;;4997261;28;20048;-75
2022/01/12 09:51:31;;;;;;;18.23;8.23;;;;;;;;;;5020881;28;20033;-75
2022/01/12 09:53:58;;;;;;;19.00;8.38;;;;;;;;;;5009895;28;20033;-75
2022/01/12 09:56:25;;;;;;;20.45;8.75;;;;;;;;;;5010577;28;20026;-75
2022/01/12 09:58:54;;;;;;;19.40;8.30;;;;;;;;;;5004662;28;20430;-75
2022/01/12 10:01:34;;;;;;;20.42;9.88;;;;;;;;;;5000861;28;20482;-74
2022/01/12 10:04:15;;;;;;;21.45;9.32;;;;;;;;;;4999478;28;20430;-74
2022/01/12 10:06:45;;;;;;;18.40;7.95;;;;;;;;;;5005729;28;20026;-76
2022/01/12 10:09:12;;;;;;;15.15;7.00;;;;;;;;;;5000808;28;20095;-75
2022/01/12 10:11:47;;;;;;;15.63;7.68;;;;;;;;;;5003216;28;20033;-76
2022/01/12 10:14:13;;;;;;;16.77;7.22;;;;;;;;;;5002913;28;20507;-75
2022/01/12 10:16:38;;;;;;;16.13;7.93;;;;;;;;;;5007857;28;20034;-76
2022/01/12 10:19:03;;;;;;;15.27;7.75;;;;;;;;;;5009534;28;20033;-75
2022/01/12 10:21:40;;;;;;;16.48;8.45;;;;;;;;;;5007677;28;20468;-76
2022/01/12 10:24:17;;;;;;;13.00;7.00;;;;;;;;;;5001649;28;20026;-76
2022/01/12 10:26:45;;;;;;;16.90;8.25;;;;;;;;;;4996250;28;20381;-75
2022/01/12 10:29:14;;;;;;;16.48;7.68;;;;;;;;;;4996373;28;20040;-76
2022/01/12 10:32:02;;;;;;;17.40;8.07;;;;;;;;;;5008417;28;20033;-76
2022/01/12 10:34:45;;;;;;;20.55;9.43;;;;;;;;;;4996217;28;20120;-76
2022/01/12 10:37:15;;;;;;;20.08;9.65;;;;;;;;;;5005114;28;20666;-75
2022/01/12 10:39:43;;;;;;;19.60;9.70;;;;;;;;;;5008400;28;20427;-76
2022/01/12 10:42:12;;;;;;;19.80;8.63;;;;;;;;;;5009087;28;20096;-75
2022/01/12 10:44:41;;;;;;;17.85;8.45;;;;;;;;;;5008292;28;20033;-75
2022/01/12 10:47:29;;;;;;;18.80;9.00;;;;;;;;;;5005595;28;21364;-74
2022/01/12 10:49:55;;;;;;;15.95;8.45;;;;;;;;;;4993372;28;20034;-73
2022/01/12 10:52:25;;;;;;;17.77;9.07;;;;;;;;;;5007361;28;20164;-74
2022/01/12 10:54:53;;;;;;;18.30;9.20;;;;;;;;;;5008238;28;20080;-73
2022/01/12 10:57:32;;;;;;;16.23;8.50;;;;;;;;;;5008183;28;20057;-75
2022/01/12 11:00:19;;;;;;;13.45;7.78;;;;;;;;;;5006923;28;20037;-75
2022/01/12 11:02:56;;;;;;;27.75;13.60;;;;;;;;;;5003090;28;20022;-75
2022/01/12 11:05:24;;;;;;;16.00;9.20;;;;;;;;;;5012803;28;20172;-76
2022/01/12 11:07:51;;;;;;;13.57;7.95;;;;;;;;;;5009491;28;20034;-75
2022/01/12 11:10:16;;;;;;;14.02;8.48;;;;;;;;;;5010812;28;20134;-75
2022/01/12 11:12:42;;;;;;;14.52;8.85;;;;;;;;;;5013193;28;20030;-76
2022/01/12 11:15:09;;;;;;;24.00;11.30;;;;;;;;;;5012056;28;20029;-75
2022/01/12 11:17:38;;;;;;;28.00;15.98;;;;;;;;;;5010967;28;20029;-76
2022/01/12 11:20:13;;;;;;;12.50;7.93;;;;;;;;;;5010552;28;20036;-74
2022/01/12 11:22:55;;;;;;;14.23;7.68;;;;;;;;;;4996262;28;20644;-74
2022/01/12 11:25:29;;;;;;;12.88;7.43;;;;;;;;;;5009277;28;20029;-75
2022/01/12 11:28:11;;;;;;;13.60;8.38;;;;;;;;;;5009130;28;20072;-75
2022/01/12 11:30:42;;;;;;;14.60;8.47;;;;;;;;;;5007252;28;20179;-74
2022/01/12 11:33:09;;;;;;;14.43;8.73;;;;;;;;;;5011397;28;20022;-74
2022/01/12 11:35:38;;;;;;;13.23;7.32;;;;;;;;;;4999853;28;20107;-75
2022/01/12 11:38:04;;;;;;;13.30;7.28;;;;;;;;;;4994728;28;20391;-75
2022/01/12 11:40:39;;;;;;;12.85;7.65;;;;;;;;;;5010783;28;20025;-75
2022/01/12 11:43:21;;;;;;;13.88;8.00;;;;;;;;;;5012181;28;20037;-75
2022/01/12 11:46:04;;;;;;;14.23;8.07;;;;;;;;;;5006392;28;20034;-75
2022/01/12 11:48:55;;;;;;;16.13;8.25;;;;;;;;;;4992674;28;20041;-75
2022/01/12 11:51:38;;;;;;;12.88;7.80;;;;;;;;;;5003063;28;20641;-75
2022/01/12 11:54:10;;;;;;;14.05;7.78;;;;;;;;;;5008311;28;20460;-75
2022/01/12 11:56:37;;;;;;;13.85;8.15;;;;;;;;;;5011129;28;20034;-75
2022/01/12 11:59:05;;;;;;;16.23;8.63;;;;;;;;;;5011542;28;20045;-75
2022/01/12 12:01:40;;;;;;;15.45;9.00;;;;;;;;;;5007863;28;20040;-74
2022/01/12 12:04:06;;;;;;;14.65;9.18;;;;;;;;;;5007716;28;20034;-75
2022/01/12 12:06:32;;;;;;;16.70;8.80;;;;;;;;;;5011258;28;20025;-75
2022/01/12 12:09:04;;;;;;;18.52;8.90;;;;;;;;;;5010900;28;20083;-75
2022/01/12 12:11:31;;;;;;;15.85;9.30;;;;;;;;;;5010930;28;20026;-75
2022/01/12 12:14:04;;;;;;;19.95;8.65;;;;;;;;;;5009938;28;20277;-74
2022/01/12 12:16:30;;;;;;;17.05;9.18;;;;;;;;;;5011123;28;20065;-75
2022/01/12 12:18:57;;;;;;;20.83;9.38;;;;;;;;;;5011331;28;20169;-75
2022/01/12 12:21:22;;;;;;;18.42;9.65;;;;;;;;;;5009725;28;20026;-75
2022/01/12 12:23:48;;;;;;;17.35;9.80;;;;;;;;;;5006110;28;20506;-74
2022/01/12 12:26:18;;;;;;;21.88;11.88;;;;;;;;;;5008131;28;20201;-74
2022/01/12 12:28:52;;;;;;;20.17;10.48;;;;;;;;;;4994174;28;20018;-74
2022/01/12 12:31:26;;;;;;;17.75;10.55;;;;;;;;;;5006388;28;20029;-74
2022/01/12 12:34:04;;;;;;;;;;;;;;;;;;4995500;28;20156;-74
2022/01/12 12:36:30;;;;;;;17.55;9.40;;;;;;;;;;4998254;28;20005;-74
2022/01/12 12:39:13;;;;;;;16.02;9.40;;;;;;;;;;4994505;28;20777;-75
2022/01/12 12:41:44;;;;;;;18.77;9.93;;;;;;;;;;5001092;28;20033;-75
2022/01/12 12:44:24;;;;;;;17.92;9.73;;;;;;;;;;5006124;28;20033;-75
2022/01/12 12:46:51;;;;;;;16.38;9.15;;;;;;;;;;5002787;28;20286;-74
2022/01/12 12:49:18;;;;;;;18.48;10.27;;;;;;;;;;5006909;28;20018;-74
2022/01/12 12:51:43;;;;;;;16.58;9.60;;;;;;;;;;5002667;28;20416;-74
2022/01/12 12:54:12;;;;;;;19.40;10.60;;;;;;;;;;5001096;28;20068;-74
2022/01/12 12:56:42;;;;;;;25.95;12.02;;;;;;;;;;5002421;28;20034;-74
2022/01/12 12:59:08;;;;;;;18.92;10.65;;;;;;;;;;4998714;28;20022;-74
2022/01/12 13:01:34;;;;;;;16.02;9.70;;;;;;;;;;5004369;28;20036;-74
2022/01/12 13:04:00;;;;;;;16.48;9.43;;;;;;;;;;5005745;28;20365;-74
2022/01/12 13:06:39;;;;;;;17.33;10.27;;;;;;;;;;5003107;28;20582;-74
2022/01/12 13:09:07;;;;;;;15.43;9.40;;;;;;;;;;5004418;28;20514;-74
2022/01/12 13:11:37;;;;;;;21.95;11.93;;;;;;;;;;5006437;28;20101;-74
2022/01/12 13:14:08;;;;;;;17.42;9.93;;;;;;;;;;5005396;28;20041;-74
2022/01/12 13:16:34;;;;;;;21.98;11.90;;;;;;;;;;5005548;28;20030;-74
2022/01/12 13:19:19;;;;;;;16.80;9.18;;;;;;;;;;5006149;28;20397;-74
2022/01/12 13:21:45;;;;;;;15.40;9.35;;;;;;;;;;4994612;28;20092;-74
2022/01/12 13:24:10;;;;;;;15.27;9.07;;;;;;;;;;5004373;28;20045;-74
2022/01/12 13:26:36;;;;;;;14.38;8.73;;;;;;;;;;5003763;28;20383;-74
2022/01/12 13:29:10;;;;;;;20.33;9.00;;;;;;;;;;5003823;28;20093;-74
2022/01/12 13:31:36;;;;;;;15.63;9.23;;;;;;;;;;4997490;28;20030;-75
2022/01/12 13:34:03;;;;;;;14.15;8.15;;;;;;;;;;5006182;28;20376;-74
2022/01/12 13:36:31;;;;;;;13.90;9.32;;;;;;;;;;5005998;28;20076;-74
2022/01/12 13:39:07;;;;;;;17.88;10.15;;;;;;;;;;5007316;28;20022;-74
2022/01/12 13:41:34;;;;;;;15.48;9.10;;;;;;;;;;4994358;28;20034;-75
2022/01/12 13:44:07;;;;;;;17.58;9.57;;;;;;;;;;4994711;28;20061;-75
2022/01/12 13:46:39;;;;;;;20.48;10.25;;;;;;;;;;5004993;28;20487;-74
2022/01/12 13:51:41;;;;;;;18.45;10.65;;;;;;;;;;5004747;28;20029;-74
2022/01/12 13:54:10;;;;;;;17.05;9.00;;;;;;;;;;5000759;28;20030;-74
2022/01/12 13:56:42;;;;;;;15.10;8.95;;;;;;;;;;5005146;28;20423;-74
2022/01/12 13:59:07;;;;;;;17.77;10.07;;;;;;;;;;5004793;28;20030;-75
2022/01/12 14:01:36;;;;;;;16.13;10.43;;;;;;;;;;5005312;28;20026;-74
2022/01/12 14:04:10;;;;;;;20.00;10.50;;;;;;;;;;5003730;28;20458;-74
2022/01/12 14:06:47;;;;;;;17.95;10.35;;;;;;;;;;5002880;28;20025;-74
2022/01/12 14:09:27;;;;;;;19.40;10.60;;;;;;;;;;5004548;28;20037;-74
2022/01/12 14:11:53;;;;;;;17.45;10.00;;;;;;;;;;5027760;22;20026;-79
2022/01/12 14:14:20;;;;;;;15.23;9.13;;;;;;;;;;5025842;28;20037;-77
2022/01/12 14:16:46;;;;;;;16.85;9.82;;;;;;;;;;5025290;28;20447;-73
2022/01/12 14:19:13;;;;;;;19.33;9.73;;;;;;;;;;5025734;28;20574;-73
2022/01/12 14:21:40;;;;;;;17.02;9.88;;;;;;;;;;5025406;28;20067;-74
2022/01/12 14:24:11;;;;;;;17.73;9.82;;;;;;;;;;5004118;28;20030;-74
2022/01/12 14:26:39;;;;;;;17.20;10.13;;;;;;;;;;4996952;28;20026;-75
2022/01/12 14:29:05;;;;;;;17.42;10.02;;;;;;;;;;5002147;28;20080;-73
2022/01/12 14:31:31;;;;;;;18.13;10.10;;;;;;;;;;5005692;28;20038;-73
2022/01/12 14:33:57;;;;;;;18.92;10.05;;;;;;;;;;5004282;28;20044;-73
2022/01/12 14:36:23;;;;;;;18.38;10.38;;;;;;;;;;4994384;28;20426;-73
2022/01/12 14:38:49;;;;;;;15.00;9.32;;;;;;;;;;4995050;28;20117;-73
2022/01/12 14:41:14;;;;;;;20.23;10.93;;;;;;;;;;5002203;28;20402;-73
2022/01/12 14:43:40;;;;;;;28.60;13.75;;;;;;;;;;5019831;28;20036;-73
2022/01/12 14:46:06;;;;;;;35.33;16.27;;;;;;;;;;5012927;28;20059;-74
2022/01/12 14:48:31;;;;;;;18.80;10.52;;;;;;;;;;5004875;28;20030;-74
2022/01/12 14:50:57;;;;;;;18.17;10.52;;;;;;;;;;4997436;28;20026;-73
2022/01/12 14:53:23;;;;;;;19.45;10.25;;;;;;;;;;5002727;28;20280;-73
2022/01/12 14:55:52;;;;;;;20.63;11.25;;;;;;;;;;5006928;28;20503;-75
2022/01/12 14:58:18;;;;;;;21.80;15.10;;;;;;;;;;5008718;28;20496;-74
2022/01/12 15:00:44;;;;;;;14.15;9.05;;;;;;;;;;5004878;28;20021;-75
2022/01/12 15:03:10;;;;;;;14.93;9.38;;;;;;;;;;5003065;28;20033;-73
2022/01/12 15:05:37;;;;;;;13.20;7.97;;;;;;;;;;5008218;28;20026;-73
2022/01/12 15:08:03;;;;;;;14.70;7.78;;;;;;;;;;5008977;28;20033;-73
2022/01/12 15:10:29;;;;;;;18.70;9.40;;;;;;;;;;5008746;28;20353;-74
2022/01/12 15:13:02;;;;;;;19.83;10.77;;;;;;;;;;5008325;28;20045;-75
2022/01/12 15:15:27;;;;;;;15.43;8.93;;;;;;;;;;5008685;28;20468;-75
2022/01/12 15:17:52;;;;;;;16.55;9.50;;;;;;;;;;5013008;28;20383;-73
2022/01/12 15:20:18;;;;;;;13.85;8.50;;;;;;;;;;5008019;28;20025;-74
2022/01/12 15:22:46;;;;;;;15.20;8.85;;;;;;;;;;5010053;28;20301;-73
2022/01/12 15:25:17;;;;;;;17.02;10.02;;;;;;;;;;5007255;28;20034;-73
2022/01/12 15:27:43;;;;;;;16.08;9.10;;;;;;;;;;5008459;28;20479;-75
2022/01/12 15:30:10;;;;;;;17.25;9.38;;;;;;;;;;5009362;28;20037;-73
2022/01/12 15:32:35;;;;;;;16.80;9.13;;;;;;;;;;5007502;28;20098;-73
2022/01/12 15:35:01;;;;;;;15.70;9.07;;;;;;;;;;5006044;28;20510;-73
2022/01/12 15:37:26;;;;;;;16.17;9.25;;;;;;;;;;5004819;28;20033;-76
2022/01/12 15:39:55;;;;;;;16.73;9.32;;;;;;;;;;5011779;28;20029;-75
2022/01/12 15:42:22;;;;;;;18.55;9.68;;;;;;;;;;5008688;28;20022;-73
2022/01/12 15:44:47;;;;;;;17.33;9.82;;;;;;;;;;5005450;28;20030;-75
2022/01/12 15:47:14;;;;;;;17.05;9.82;;;;;;;;;;4999444;28;20045;-75
2022/01/12 15:49:40;;;;;;;19.02;11.05;;;;;;;;;;5003741;28;20553;-75
2022/01/12 15:52:06;;;;;;;16.90;10.45;;;;;;;;;;5000048;28;20041;-75